createdAt,value
2018-08-17T00:02:22.612Z,54.80
2018-08-17T00:07:25.696Z,54.80
2018-08-17T00:12:28.824Z,55.00
2018-08-17T00:17:31.915Z,55.10
2018-08-17T00:22:35.011Z,55.20
2018-08-17T00:27:38.239Z,55.40
2018-08-17T00:32:41.353Z,55.70
2018-08-17T00:37:44.451Z,55.60
2018-08-17T00:42:47.584Z,55.70
2018-08-17T00:47:50.704Z,55.80
2018-08-17T00:52:53.796Z,55.90
2018-08-17T00:57:57.075Z,56.00
2018-08-17T01:03:00.176Z,56.00
2018-08-17T01:08:03.296Z,56.20
2018-08-17T01:13:10.656Z,56.20
2018-08-17T01:18:13.763Z,56.40
2018-08-17T01:23:16.863Z,56.60
2018-08-17T01:28:19.992Z,56.70
2018-08-17T01:33:23.100Z,57.10
2018-08-17T01:38:26.203Z,57.10
2018-08-17T01:43:29.317Z,57.20
2018-08-17T01:48:32.428Z,57.40
2018-08-17T01:53:35.527Z,57.20
2018-08-17T01:58:38.654Z,57.20
2018-08-17T02:03:41.741Z,57.40
2018-08-17T02:08:44.836Z,57.50
2018-08-17T02:13:47.991Z,57.60
2018-08-17T02:18:51.100Z,57.50
2018-08-17T02:23:54.223Z,57.60
2018-08-17T02:28:57.364Z,57.80
2018-08-17T02:34:00.496Z,58.20
2018-08-17T02:39:04.912Z,57.70
2018-08-17T02:44:08.052Z,57.70
2018-08-17T02:49:11.151Z,57.60
2018-08-17T02:54:14.268Z,57.90
2018-08-17T02:59:17.375Z,58.00
2018-08-17T03:04:20.527Z,58.40
2018-08-17T03:09:23.651Z,58.60
2018-08-17T03:14:26.787Z,58.40
2018-08-17T03:19:29.903Z,58.40
2018-08-17T03:24:33.020Z,58.60
2018-08-17T03:29:36.350Z,58.50
2018-08-17T03:34:39.461Z,58.60
2018-08-17T03:39:42.580Z,58.20
2018-08-17T03:44:45.699Z,58.30
2018-08-17T03:49:48.806Z,58.70
2018-08-17T03:54:51.917Z,58.60
2018-08-17T03:59:55.048Z,58.70
2018-08-17T04:04:58.408Z,58.50
2018-08-17T04:10:01.508Z,58.80
2018-08-17T04:15:05.592Z,58.80
2018-08-17T04:20:08.793Z,59.00
2018-08-17T04:25:11.919Z,58.80
2018-08-17T04:30:15.038Z,58.80
2018-08-17T04:35:18.151Z,58.60
2018-08-17T04:40:21.250Z,58.80
2018-08-17T04:45:24.369Z,58.90
2018-08-17T04:50:27.480Z,59.10
2018-08-17T04:55:30.664Z,59.40
2018-08-17T05:00:33.762Z,59.80
2018-08-17T05:05:36.875Z,59.90
2018-08-17T05:10:40.011Z,60.20
2018-08-17T05:15:43.245Z,60.70
2018-08-17T05:20:46.359Z,60.80
2018-08-17T05:25:49.499Z,60.70
2018-08-17T05:30:52.715Z,60.50
2018-08-17T05:35:55.891Z,61.50
2018-08-17T05:40:58.980Z,61.40
2018-08-17T05:46:02.151Z,61.90
2018-08-17T05:51:05.327Z,62.00
2018-08-17T05:56:08.525Z,62.50
2018-08-17T06:01:11.663Z,62.30
2018-08-17T06:06:14.776Z,62.60
2018-08-17T06:11:18.097Z,62.60
2018-08-17T06:16:21.096Z,62.70
2018-08-17T06:21:24.207Z,63.50
2018-08-17T06:26:27.332Z,64.20
2018-08-17T06:31:30.428Z,64.60
2018-08-17T06:36:33.545Z,64.40
2018-08-17T06:41:36.772Z,62.90
2018-08-17T06:46:39.871Z,63.20
2018-08-17T06:51:43.032Z,62.10
2018-08-17T06:56:46.160Z,63.30
2018-08-17T07:01:49.272Z,61.70
2018-08-17T07:06:52.388Z,62.10
2018-08-17T07:11:55.519Z,61.50
2018-08-17T07:16:58.628Z,61.10
2018-08-17T07:22:01.760Z,60.70
2018-08-17T07:27:04.885Z,60.50
2018-08-17T07:32:08.383Z,60.50
2018-08-17T07:37:11.531Z,60.80
2018-08-17T07:42:14.653Z,59.70
2018-08-17T07:47:17.836Z,59.80
2018-08-17T07:52:20.960Z,58.70
2018-08-17T07:57:24.083Z,58.80
2018-08-17T08:02:27.216Z,57.60
2018-08-17T08:07:30.376Z,56.60
2018-08-17T08:12:33.507Z,55.50
2018-08-17T08:17:37.128Z,55.30
2018-08-17T08:22:40.238Z,54.60
2018-08-17T08:27:43.356Z,54.70
2018-08-17T08:32:46.528Z,55.30
2018-08-17T08:37:49.648Z,55.10
2018-08-17T08:42:52.976Z,54.10
2018-08-17T08:47:56.072Z,54.00
2018-08-17T08:52:59.153Z,54.50
2018-08-17T08:58:02.277Z,54.20
2018-08-17T09:03:06.171Z,53.80
2018-08-17T09:08:09.324Z,53.90
2018-08-17T09:13:12.363Z,53.20
2018-08-17T09:18:15.464Z,53.00
2018-08-17T09:23:18.567Z,52.50
2018-08-17T09:28:21.678Z,52.10
2018-08-17T09:33:24.798Z,51.80
2018-08-17T09:38:27.899Z,51.50
2018-08-17T09:43:31.017Z,51.50
2018-08-17T09:48:34.118Z,51.10
2018-08-17T09:53:37.244Z,50.70
2018-08-17T09:58:40.583Z,50.70
2018-08-17T10:03:48.024Z,49.80
2018-08-17T10:08:56.511Z,49.60
2018-08-17T10:13:59.643Z,48.90
2018-08-17T10:19:02.745Z,48.40
2018-08-17T10:24:05.861Z,48.30
2018-08-17T10:29:08.944Z,48.20
2018-08-17T10:34:12.369Z,48.30
2018-08-17T10:39:15.979Z,47.90
2018-08-17T10:44:19.137Z,47.60
2018-08-17T10:49:22.280Z,47.00
2018-08-17T10:54:25.924Z,46.70
2018-08-17T10:59:29.059Z,45.70
2018-08-17T11:04:32.185Z,45.70
2018-08-17T11:09:35.308Z,45.90
2018-08-17T11:14:38.441Z,46.10
2018-08-17T11:19:41.625Z,45.90
2018-08-17T11:24:44.732Z,44.90
2018-08-17T11:29:47.876Z,45.20
2018-08-17T11:34:53.405Z,45.40
2018-08-17T11:40:04.328Z,45.30
2018-08-17T11:45:09.906Z,45.30
2018-08-17T11:50:14.433Z,45.50
2018-08-17T11:55:18.159Z,44.50
2018-08-17T12:00:21.314Z,45.10
2018-08-17T12:05:24.430Z,45.50
2018-08-17T12:10:27.541Z,45.30
2018-08-17T12:15:31.457Z,45.00
2018-08-17T12:20:34.579Z,45.80
2018-08-17T12:25:43.752Z,45.50
2018-08-17T12:30:46.868Z,47.30
2018-08-17T12:35:49.976Z,47.10
2018-08-17T12:40:55.239Z,48.20
2018-08-17T12:45:58.379Z,49.30
2018-08-17T12:51:04.628Z,50.00
2018-08-17T12:56:07.735Z,50.10
2018-08-17T13:01:10.835Z,50.40
2018-08-17T13:06:13.952Z,49.90
2018-08-17T13:11:17.032Z,50.40
2018-08-17T13:16:20.132Z,51.60
2018-08-17T13:21:23.319Z,50.90
2018-08-17T13:26:26.456Z,50.10
2018-08-17T13:31:31.196Z,50.30
2018-08-17T13:36:34.326Z,50.70
2018-08-17T13:41:37.507Z,49.80
2018-08-17T13:46:40.851Z,49.60
2018-08-17T13:51:43.992Z,49.50
2018-08-17T13:56:47.128Z,48.10
2018-08-17T14:01:50.248Z,49.00
2018-08-17T14:06:53.404Z,49.00
2018-08-17T14:11:56.535Z,48.50
2018-08-17T14:16:59.699Z,48.00
2018-08-17T14:22:02.895Z,47.70
2018-08-17T14:27:06.004Z,47.30
2018-08-17T14:32:09.111Z,46.90
2018-08-17T14:37:12.234Z,47.00
2018-08-17T14:42:15.329Z,46.50
2018-08-17T14:47:18.426Z,47.30
2018-08-17T14:52:21.527Z,47.30
2018-08-17T14:57:24.639Z,47.00
2018-08-17T15:02:27.739Z,46.90
2018-08-17T15:07:31.221Z,47.70
2018-08-17T15:12:34.372Z,47.80
2018-08-17T15:17:37.435Z,48.10
2018-08-17T15:22:40.556Z,48.10
2018-08-17T15:27:43.642Z,48.10
2018-08-17T15:32:46.745Z,47.60
2018-08-17T15:37:49.888Z,47.80
2018-08-17T15:42:53.292Z,47.70
2018-08-17T15:47:56.432Z,47.70
2018-08-17T15:52:59.568Z,47.80
2018-08-17T15:58:09.444Z,47.90
2018-08-17T16:03:12.557Z,47.90
2018-08-17T16:08:15.719Z,47.90
2018-08-17T16:13:18.769Z,48.00
2018-08-17T16:18:21.881Z,47.60
2018-08-17T16:23:24.975Z,48.10
2018-08-17T16:28:28.073Z,48.20
2018-08-17T16:33:31.244Z,48.30
2018-08-17T16:38:36.519Z,48.20
2018-08-17T16:43:45.163Z,48.90
2018-08-17T16:48:48.313Z,49.20
2018-08-17T16:53:51.412Z,49.40
2018-08-17T16:58:54.537Z,49.60
2018-08-17T17:03:57.667Z,49.30
2018-08-17T17:09:04.028Z,49.20
2018-08-17T17:14:07.207Z,49.70
2018-08-17T17:19:20.211Z,49.80
2018-08-17T17:24:23.316Z,49.80
2018-08-17T17:29:30.768Z,50.00
2018-08-17T17:34:33.985Z,49.90
2018-08-17T17:39:37.092Z,50.20
2018-08-17T17:44:40.256Z,50.10
2018-08-17T17:49:43.372Z,50.00
2018-08-17T17:54:46.507Z,50.00
2018-08-17T17:59:54.931Z,50.00
2018-08-17T18:04:58.047Z,50.00
2018-08-17T18:10:01.985Z,50.50
2018-08-17T18:15:05.556Z,50.50
2018-08-17T18:20:09.020Z,50.60
2018-08-17T18:25:19.140Z,50.70
2018-08-17T18:30:22.399Z,50.90
2018-08-17T18:35:25.720Z,51.00
2018-08-17T18:40:28.961Z,51.10
2018-08-17T18:45:32.100Z,51.30
2018-08-17T18:50:35.222Z,51.50
2018-08-17T18:55:38.516Z,51.50
2018-08-17T19:00:41.622Z,51.70
2018-08-17T19:05:45.147Z,51.80
2018-08-17T19:10:48.281Z,51.90
2018-08-17T19:15:54.619Z,51.80
2018-08-17T19:21:04.677Z,51.80
2018-08-17T19:26:08.888Z,51.70
2018-08-17T19:31:12.020Z,51.70
2018-08-17T19:36:15.311Z,51.90
2018-08-17T19:41:18.651Z,51.90
2018-08-17T19:46:21.964Z,51.80
2018-08-17T19:51:25.193Z,52.10
2018-08-17T19:56:29.032Z,52.40
2018-08-17T20:01:32.140Z,52.50
2018-08-17T20:06:35.427Z,52.60
2018-08-17T20:11:38.528Z,52.80
2018-08-17T20:16:41.653Z,52.80
2018-08-17T20:21:44.779Z,52.80
2018-08-17T20:26:48.657Z,53.00
2018-08-17T20:31:51.672Z,52.80
2018-08-17T20:36:54.837Z,52.90
2018-08-17T20:41:57.952Z,52.70
2018-08-17T20:47:01.980Z,52.60
2018-08-17T20:52:05.324Z,52.70
2018-08-17T20:57:08.421Z,52.70
2018-08-17T21:02:11.616Z,52.70
2018-08-17T21:07:14.728Z,52.90
2018-08-17T21:12:17.836Z,53.00
2018-08-17T21:17:20.915Z,52.90
2018-08-17T21:22:24.048Z,53.20
2018-08-17T21:27:27.127Z,53.10
2018-08-17T21:32:30.237Z,53.30
2018-08-17T21:37:33.391Z,53.30
2018-08-17T21:42:36.552Z,53.20
2018-08-17T21:47:39.643Z,53.60
2018-08-17T21:52:43.727Z,53.60
2018-08-17T21:57:46.877Z,53.60
2018-08-17T22:02:50.148Z,53.60
2018-08-17T22:07:53.267Z,53.90
2018-08-17T22:12:56.410Z,53.90
2018-08-17T22:17:59.775Z,53.90
2018-08-17T22:23:02.923Z,54.20
2018-08-17T22:28:06.737Z,54.10
2018-08-17T22:33:09.872Z,54.50
2018-08-17T22:38:12.966Z,54.70
2018-08-17T22:43:16.087Z,54.60
2018-08-17T22:48:19.397Z,54.60
2018-08-17T22:53:22.482Z,54.70
2018-08-17T22:58:25.583Z,54.60
2018-08-17T23:03:28.904Z,55.00
2018-08-17T23:08:32.004Z,55.20
2018-08-17T23:13:35.112Z,55.20
2018-08-17T23:18:38.231Z,55.20
2018-08-17T23:23:41.388Z,55.40
2018-08-17T23:28:44.503Z,55.40
2018-08-17T23:33:47.598Z,55.30
2018-08-17T23:38:50.710Z,55.60
2018-08-17T23:43:53.831Z,55.40
2018-08-17T23:48:56.941Z,55.70
2018-08-17T23:54:00.041Z,55.30
2018-08-17T23:59:03.157Z,55.50
